WetterOnline ( https://www.wetteronline.ch )

Wetter aktuell Diepholz

Aktuelles Wetter: Diepholz (40m)

6-stündlich | Neueste Meldungen
Ortszeit Temperatur Wetter
Do, 22.10. 8:00 13.5° C bedeckt
Do, 22.10. 2:00 16.6° C wolkenlos
Mi, 21.10. 20:00 17.2° C bedeckt
Mi, 21.10. 14:00 13.5° C leichter Regen
Mi, 21.10. 8:00 11.9° C leichter Regen
Mi, 21.10. 2:00 12.3° C bewölkt
Di, 20.10. 20:00 12.4° C leichter Regen
Di, 20.10. 14:00 11.1° C leichter Regen
Ortszeit Temperatur Wetter
Do, 22.10. 13:00 18.0° C fast wolkenlos
Do, 22.10. 12:50 18.0° C fast wolkenlos
Do, 22.10. 12:40 17.7° C wolkenlos
Do, 22.10. 12:30 17.5° C leicht bewölkt
Do, 22.10. 12:20 17.5° C leicht bewölkt
Do, 22.10. 12:10 17.4° C leicht bewölkt
Do, 22.10. 12:00 16.9° C leicht bewölkt
Do, 22.10. 11:30 16.5° C leicht bewölkt
Do, 22.10. 11:00 15.4° C fast wolkenlos
Do, 22.10. 10:30 14.7° C wolkig
Do, 22.10. 10:00 14.4° C bewölkt
Ortszeit Relative Feuchte Sichtweite
Do, 22.10. 8:00 88% 55 km
Do, 22.10. 2:00 70% >70 km
Mi, 21.10. 20:00 71% 50 km
Mi, 21.10. 14:00 92% 30 km
Mi, 21.10. 8:00 96% 11 km
Mi, 21.10. 2:00 95% 30 km
Di, 20.10. 20:00 94% 26 km
Di, 20.10. 14:00 84% 21 km
Ortszeit Relative Feuchte Sichtweite
Do, 22.10. 13:00 64% 45 km
Do, 22.10. 12:50 64% -
Do, 22.10. 12:40 63% -
Do, 22.10. 12:30 63% >70 km
Do, 22.10. 12:20 63% -
Do, 22.10. 12:10 64% -
Do, 22.10. 12:00 71% 65 km
Do, 22.10. 11:30 77% 55 km
Do, 22.10. 11:00 82% 35 km
Do, 22.10. 10:30 84% 50 km
Do, 22.10. 10:00 87% 50 km
Ortszeit Niederschlagsmenge Niederschlagsart
Do, 22.10. 8:00 0.0 l/m2 in 12 Std. -
Do, 22.10. 2:00 0.0 l/m2 in 6 Std. -
Mi, 21.10. 20:00 4 l/m2 in 12 Std. Regen
Mi, 21.10. 14:00 4 l/m2 in 6 Std. Regen
Mi, 21.10. 8:00 5 l/m2 in 12 Std. Regen
Mi, 21.10. 2:00 2 l/m2 in 6 Std. Regen
Di, 20.10. 20:00 1 l/m2 in 12 Std. Regen
Di, 20.10. 14:00 0.1 l/m2 in 6 Std. Regen
Ortszeit Niederschlagsmenge Niederschlagsart
Do, 22.10. 13:00 0.0 l/m2 in 1 Std. -
Do, 22.10. 12:50 keine Meldung -
Do, 22.10. 12:40 keine Meldung -
Do, 22.10. 12:30 0.0 l/m2 in 1 Std. -
Do, 22.10. 12:20 keine Meldung -
Do, 22.10. 12:10 keine Meldung -
Do, 22.10. 12:00 0.0 l/m2 in 1 Std. -
Do, 22.10. 11:30 0.0 l/m2 in 1 Std. -
Do, 22.10. 11:00 0.0 l/m2 in 1 Std. -
Do, 22.10. 10:30 0.0 l/m2 in 1 Std. -
Do, 22.10. 10:00 0.0 l/m2 in 1 Std. -
Ortszeit Stärke Spitze Richtung
km/h Bft. km/h Grad Sektor
Do, 22.10. 8:00 13 3 61 210° SW
Do, 22.10. 2:00 32 5 72 240° SW
Mi, 21.10. 20:00 20 4 35 200° S
Mi, 21.10. 14:00 17 3 28 160° S
Mi, 21.10. 8:00 13 3 20 160° S
Mi, 21.10. 2:00 11 2 25 180° S
Di, 20.10. 20:00 11 2 22 190° S
Di, 20.10. 14:00 7 2 25 170° S
Ortszeit Stärke Spitze Richtung
km/h Bft. km/h Grad Sektor
Do, 22.10. 13:00 22 4 47 240° SW
Do, 22.10. 12:50 22 4 - 240° SW
Do, 22.10. 12:40 26 4 - 240° SW
Do, 22.10. 12:30 32 5 47 240° SW
Do, 22.10. 12:20 32 5 - 240° SW
Do, 22.10. 12:10 25 4 - 240° SW
Do, 22.10. 12:00 25 4 40 230° SW
Do, 22.10. 11:30 25 4 36 230° SW
Do, 22.10. 11:00 15 3 30 230° SW
Do, 22.10. 10:30 17 3 30 230° SW
Do, 22.10. 10:00 15 3 24 220° SW
Ortszeit Untergrenze Bedeckung Gattung
total tief tief mittel hoch
Do, 22.10. 8:00 4800 m 8/8 8/8 - - -
Do, 22.10. 2:00 - 0/8 0/8 - - -
Mi, 21.10. 20:00 2100 m 8/8 8/8 - - -
Mi, 21.10. 14:00 1800 m 8/8 4/8 - - -
Mi, 21.10. 8:00 1380 m 8/8 8/8 - - -
Mi, 21.10. 2:00 1050 m 8/8 5/8 - - -
Di, 20.10. 20:00 2400 m 7/8 7/8 - - -
Di, 20.10. 14:00 2700 m 7/8 7/8 - - -
Ortszeit Bedeckungsgrad in Achtel und Wolkenuntergrenze
Do, 22.10. 13:00 1(1020m)
Do, 22.10. 12:50 1(1020m)
Do, 22.10. 12:40 keine Wolken
Do, 22.10. 12:30 1(870m)
Do, 22.10. 12:20 1(870m) 1(2700m) 2(7200m)
Do, 22.10. 12:10 2(840m) 3(7200m)
Do, 22.10. 12:00 3(780m) 4(2700m)
Do, 22.10. 11:30 1(630m) 3(2700m)
Do, 22.10. 11:00 1(720m)
Do, 22.10. 10:30 4(3600m) 6(4800m) 4(5100m)
Do, 22.10. 10:00 1(4200m) 7(5100m) 7(5700m)
Ortszeit Luftdruck NN (hPa) Tendenz (hPa in 3 Std.)
Do, 22.10. 8:00 1009 + 1,0
Do, 22.10. 2:00 1006 + 3,6
Mi, 21.10. 20:00 1001 + 0,6
Mi, 21.10. 14:00 1003 - 2,0
Mi, 21.10. 8:00 1006 - 1,3
Mi, 21.10. 2:00 1008 - 0,9
Di, 20.10. 20:00 1009 + 0,1
Di, 20.10. 14:00 1010 - 0,4
Ortszeit Luftdruck NN (hPa) Tendenz (hPa in 3 Std.)
Do, 22.10. 13:00 1011 + 0,8
Do, 22.10. 12:50 1011 keine Meldung
Do, 22.10. 12:40 1011 keine Meldung
Do, 22.10. 12:30 1011 + 1,0
Do, 22.10. 12:20 1011 keine Meldung
Do, 22.10. 12:10 1011 keine Meldung
Do, 22.10. 12:00 1011 + 1,3
Do, 22.10. 11:30 1011 + 1,5
Do, 22.10. 11:00 1011 + 1,7
Do, 22.10. 10:30 1011 + 2,0
Do, 22.10. 10:00 1010 + 1,2
Ortszeit Schneehöhe (cm)
Do, 22.10. 8:00 0
Do, 22.10. 2:00 0
Mi, 21.10. 20:00 0
Mi, 21.10. 14:00 0
Mi, 21.10. 8:00 0
Mi, 21.10. 2:00 0
Di, 20.10. 20:00 0
Di, 20.10. 14:00 0
Ortszeit Schneehöhe (cm)
Do, 22.10. 13:00 0
Do, 22.10. 12:50 0
Do, 22.10. 12:40 0
Do, 22.10. 12:30 0
Do, 22.10. 12:20 0
Do, 22.10. 12:10 0
Do, 22.10. 12:00 0
Do, 22.10. 11:30 0
Do, 22.10. 11:00 0
Do, 22.10. 10:30 0
Do, 22.10. 10:00 0
Link zu dieser Seite / Seite empfehlen

Das Wetter in ...